Stations météo

réclame
Mon MeteoGroup
Lagunas de Somoza, Espagne (8123): Température de l'air & dewpoint: 08.12.2018 12:00:00 - 14.12.2018 12:00:00 (CET)Lagunas de Somoza, Espagne (8123): Vitesse du vent & gusts: 08.12.2018 12:00:00 - 14.12.2018 12:00:00 (CET)Lagunas de Somoza, Espagne (8123): Direction du vent: 08.12.2018 12:00:00 - 14.12.2018 12:00:00 (CET)Lagunas de Somoza, Espagne (8123): Quantités de précipitations: 08.12.2018 12:00:00 - 14.12.2018 12:00:00 (CET)
Date & Time tt [°C] td [°C] ff [km/h] ff [knt] fx [km/h] fx [knt] dd rr [mm]
14.12.2018 12:00:00 - - - - - - - -
14.12.2018 11:00:00 4,1 -0,1 14 8 23 12 NE 0,0
14.12.2018 10:00:00 3,4 -0,6 13 7 18 10 NE 0,0
14.12.2018 09:00:00 2,6 0,2 3 2 21 11 E 0,0
14.12.2018 08:00:00 2,3 -0,6 2 1 26 14 E 0,0
14.12.2018 07:00:00 2,4 -1,0 18 10 29 16 NE -
14.12.2018 06:00:00 2,5 -0,4 22 12 36 20 NE 0,0
14.12.2018 05:00:00 2,3 -0,8 16 9 39 21 NNE 0,0
14.12.2018 04:00:00 2,4 -0,7 8 4 25 13 NNE 0,0
14.12.2018 03:00:00 2,5 -0,9 14 7 31 17 NE 0,0
14.12.2018 02:00:00 2,7 -0,9 23 12 42 23 NE 0,0
14.12.2018 01:00:00 3,0 -1,3 21 11 34 19 NE -
14.12.2018 00:00:00 2,8 -1,2 5 3 34 18 NNE 0,0
13.12.2018 23:00:00 3,1 -1,2 11 6 47 25 NE 0,0
13.12.2018 22:00:00 3,2 -1,2 25 14 51 28 ENE 0,0
13.12.2018 21:00:00 2,7 -1,1 29 15 46 25 E 0,0
13.12.2018 20:00:00 3,0 -1,9 26 14 57 31 ESE 0,0
13.12.2018 19:00:00 2,6 -1,7 30 16 61 33 SE -
13.12.2018 18:00:00 2,9 -1,6 35 19 61 33 SE 0,0
13.12.2018 17:00:00 3,3 -1,2 39 21 60 32 SE 0,0
13.12.2018 16:00:00 2,8 -0,6 28 15 58 31 SSE 0,0
13.12.2018 15:00:00 4,2 -1,6 32 17 53 29 W 0,0
13.12.2018 14:00:00 4,2 -1,6 31 17 55 30 WNW 0,0
13.12.2018 13:00:00 4,4 -1,0 18 10 45 25 NNW -
13.12.2018 12:00:00 3,7 0,1 19 10 40 21 NNW 0,0
13.12.2018 11:00:00 3,2 -0,2 22 12 46 25 N 0,0
13.12.2018 10:00:00 3,3 0,4 25 13 44 24 N 0,0
13.12.2018 09:00:00 2,8 -0,1 25 13 43 23 NNE 0,0
13.12.2018 08:00:00 3,5 0,2 18 10 46 25 N 0,0
13.12.2018 07:00:00 4,1 1,1 22 12 31 17 NNE -
13.12.2018 06:00:00 4,6 3,4 16 8 27 15 NNE 1,6
13.12.2018 05:00:00 5,4 4,5 6 3 16 9 E 0,0
13.12.2018 04:00:00 6,0 5,4 9 5 29 16 S 0,3
13.12.2018 03:00:00 5,9 5,6 17 9 32 17 SSW 0,0
13.12.2018 02:00:00 4,4 4,1 3 2 17 9 SW 0,2
13.12.2018 01:00:00 3,0 2,7 5 3 21 11 ESE -
13.12.2018 00:00:00 2,9 2,6 6 3 22 12 SE 0,0
12.12.2018 23:00:00 2,7 2,4 4 2 14 7 ESE 0,0
12.12.2018 22:00:00 2,6 2,3 5 3 14 8 E 0,0
12.12.2018 21:00:00 2,7 2,3 4 2 9 5 ESE 0,0
12.12.2018 20:00:00 2,8 2,4 2 1 13 7 SSW 0,0
12.12.2018 19:00:00 3,1 2,5 8 4 12 7 ESE -
12.12.2018 18:00:00 2,9 2,0 3 2 16 9 ESE 0,0
12.12.2018 17:00:00 4,1 2,8 1 0 13 7 SE 0,0
12.12.2018 16:00:00 4,4 2,8 1 1 12 6 SW 0,0
12.12.2018 15:00:00 4,6 2,6 5 3 9 5 SSW 0,0
12.12.2018 14:00:00 - - - - - - - -
12.12.2018 13:00:00 - - - - - - - -
12.12.2018 12:00:00 4,0 2,4 6 3 10 6 SSE 0,0
12.12.2018 11:00:00 5,2 2,7 5 3 11 6 SW 0,0
12.12.2018 10:00:00 4,0 3,1 0 0 6 3 N 0,0
12.12.2018 09:00:00 -0,5 -1,2 4 2 7 4 NE 0,0
12.12.2018 08:00:00 0,0 -0,7 0 0 5 3 NNE 0,0
12.12.2018 07:00:00 2,0 1,3 4 2 6 3 NE -
12.12.2018 06:00:00 1,4 0,5 5 3 9 5 N 0,0
12.12.2018 05:00:00 1,9 0,6 5 3 15 8 NE 0,0
12.12.2018 04:00:00 3,8 2,5 13 7 16 9 ENE 0,0
12.12.2018 03:00:00 3,3 1,4 5 3 10 6 NE 0,0
12.12.2018 02:00:00 4,3 1,8 3 2 19 10 NW 0,0
12.12.2018 01:00:00 3,3 0,9 9 5 15 8 N -
12.12.2018 00:00:00 4,4 2,3 5 3 16 9 NE 0,0
11.12.2018 23:00:00 4,4 1,6 4 2 18 10 NE 0,0
11.12.2018 22:00:00 5,0 1,0 11 6 14 8 NE 0,0
11.12.2018 21:00:00 6,0 -0,5 4 2 17 9 NNE 0,0
11.12.2018 20:00:00 8,2 0,7 11 6 21 11 NE 0,0
11.12.2018 19:00:00 7,3 0,7 5 3 16 9 NNE -
11.12.2018 18:00:00 8,9 2,3 7 4 9 5 N 0,0
11.12.2018 17:00:00 11,0 2,1 0 0 6 3 N 0,0
11.12.2018 16:00:00 11,6 2,6 3 1 8 4 WSW 0,0
11.12.2018 15:00:00 12,1 2,3 6 3 13 7 WSW 0,0
11.12.2018 14:00:00 11,8 2,3 5 3 14 7 SSE 0,0
11.12.2018 13:00:00 9,8 1,7 0 0 5 3 WSW -
11.12.2018 12:00:00 9,1 1,5 2 1 6 3 S 0,0
11.12.2018 11:00:00 6,0 3,2 0 0 0 0 N 0,1
11.12.2018 10:00:00 1,9 0,1 0 0 8 5 N 0,0
11.12.2018 09:00:00 -0,6 -1,6 2 1 7 4 NNE 0,0
11.12.2018 08:00:00 -0,8 -1,8 1 1 6 3 NE 0,0
11.12.2018 07:00:00 -1,0 -2,0 3 1 9 5 NE -
11.12.2018 06:00:00 -0,9 -2,0 2 1 6 3 NE 0,0
11.12.2018 05:00:00 -1,0 -2,3 1 1 6 4 NE 0,0
11.12.2018 04:00:00 -0,7 -2,0 2 1 10 5 NNE 0,0
11.12.2018 03:00:00 -0,4 -1,5 6 3 10 6 NNE 0,0
11.12.2018 02:00:00 0,1 -0,9 4 2 6 3 NE 0,0
11.12.2018 01:00:00 0,0 -1,0 3 1 6 3 ENE -
11.12.2018 00:00:00 0,6 -0,5 4 2 6 3 N 0,0
10.12.2018 23:00:00 1,3 0,1 1 0 5 3 NE 0,0
10.12.2018 22:00:00 2,8 1,6 1 1 5 3 E 0,0
10.12.2018 21:00:00 2,0 0,5 4 2 7 4 NE 0,0
10.12.2018 20:00:00 2,7 0,4 1 0 6 3 E 0,0
10.12.2018 19:00:00 3,5 0,4 4 2 6 3 NNE -
10.12.2018 18:00:00 6,5 -0,9 0 0 3 2 N 0,0
10.12.2018 17:00:00 11,0 -0,4 2 1 7 4 W 0,0
10.12.2018 16:00:00 11,2 -0,6 1 1 10 6 SW 0,0
10.12.2018 15:00:00 12,7 -1,2 7 4 13 7 WSW 0,0
10.12.2018 14:00:00 13,2 -1,9 4 2 9 5 SSW 0,0
10.12.2018 13:00:00 12,3 -1,6 3 1 8 4 SW -
10.12.2018 12:00:00 9,8 -0,1 2 1 5 3 SW 0,0
10.12.2018 11:00:00 7,1 2,4 0 0 5 3 SSW 0,0
10.12.2018 10:00:00 3,9 3,3 1 0 3 2 SSW 0,0
10.12.2018 09:00:00 0,0 -0,6 6 3 10 5 NNE 0,0
10.12.2018 08:00:00 -1,7 -2,3 5 3 6 4 NNE 0,0
10.12.2018 07:00:00 -1,5 -2,2 0 0 8 4 E -
10.12.2018 06:00:00 -1,5 -2,2 0 0 6 4 N 0,0
10.12.2018 05:00:00 -0,7 -1,5 4 2 6 4 NE 0,0
10.12.2018 04:00:00 -0,4 -2,1 0 0 7 4 E 0,0
10.12.2018 03:00:00 2,1 -0,6 5 3 9 5 E 0,0
10.12.2018 02:00:00 3,2 -4,9 8 4 10 6 ESE 0,0
10.12.2018 01:00:00 3,5 -7,8 5 3 10 5 SSW -
10.12.2018 00:00:00 4,6 -7,5 7 4 15 8 NNE 0,0
09.12.2018 23:00:00 4,6 -7,5 13 7 14 8 NNE 0,0
09.12.2018 22:00:00 5,5 -7,3 6 3 12 7 NE 0,0
09.12.2018 21:00:00 6,9 -6,7 3 1 18 10 NE 0,0
09.12.2018 20:00:00 6,1 -6,1 14 8 17 9 NNE 0,0
09.12.2018 19:00:00 5,8 -6,4 13 7 16 9 NNE -
09.12.2018 18:00:00 8,5 -7,2 13 7 17 9 NNE 0,0
09.12.2018 17:00:00 14,6 -9,4 12 6 25 13 NNE 0,0
09.12.2018 16:00:00 15,4 -8,7 14 8 26 14 NE 0,0
09.12.2018 15:00:00 15,4 -8,7 15 8 29 15 NE 0,0
09.12.2018 14:00:00 15,8 -9,1 18 10 30 16 ENE 0,0
09.12.2018 13:00:00 15,8 -9,9 14 8 28 15 NE -
09.12.2018 12:00:00 15,1 -9,7 14 8 30 16 NE 0,0
09.12.2018 11:00:00 13,5 -5,6 9 5 23 12 NNE 0,0
09.12.2018 10:00:00 10,3 -4,8 15 8 22 12 NNW 0,0
09.12.2018 09:00:00 9,2 -4,3 5 3 12 6 N 0,0
09.12.2018 08:00:00 8,2 -1,3 6 3 23 12 N 0,0
09.12.2018 07:00:00 9,1 1,5 12 6 17 9 NNE -
09.12.2018 06:00:00 9,5 0,9 3 2 16 9 N 0,0
09.12.2018 05:00:00 8,7 2,3 8 5 13 7 NW 0,0
09.12.2018 04:00:00 9,4 4,6 2 1 21 11 NW 0,0
09.12.2018 03:00:00 10,2 6,5 14 8 24 13 N 0,0
09.12.2018 02:00:00 10,7 7,6 13 7 32 17 N 0,0
09.12.2018 01:00:00 10,9 7,4 20 11 30 16 N -
09.12.2018 00:00:00 11,0 7,7 12 6 32 17 NNE 0,0
08.12.2018 23:00:00 10,8 6,2 19 10 29 16 NNE 0,0
08.12.2018 22:00:00 11,1 4,8 10 5 21 11 N 0,0
08.12.2018 21:00:00 10,7 2,8 11 6 22 12 NNW 0,0
08.12.2018 20:00:00 10,4 -2,6 11 6 21 11 NW 0,0
08.12.2018 19:00:00 8,8 -3,0 1 1 10 5 SE -
08.12.2018 18:00:00 10,1 0,2 2 1 10 5 W 0,0
08.12.2018 17:00:00 14,0 1,3 6 4 13 7 WSW 0,0
08.12.2018 16:00:00 14,1 2,1 6 3 13 7 SW 0,0
08.12.2018 15:00:00 13,2 2,5 6 3 12 7 SSW 0,0
08.12.2018 14:00:00 12,1 1,2 9 5 14 7 WSW 0,0
08.12.2018 13:00:00 9,9 -0,8 8 4 13 7 WSW -
08.12.2018 12:00:00 9,0 -0,6 7 4 12 6 W 0,0

tt = Température de l'air
td = dewpoint
ff = Vitesse du vent
fx = gusts
dd = Direction du vent
rr = Quantités de précipitations

stations d'obs. à proximité